Time;durP1;ratioP1;P1;durP2;ratioP2;P2;SDS_P1;SDS_P2;PMS_P1;PMS_P2;Temp;Humidity;BMP_temperature;BMP_pressure;BME280_temperature;BME280_humidity;BME280_pressure;Samples;Min_cycle;Max_cycle;Signal;HPM_P1;HPM_P2
2023/07/26 00:00:33;;;;;;;0.30;0.30;;;;;;;17.28;100.00;97914.59;5013262;28;20456;-79
2023/07/26 00:03:00;;;;;;;0.30;0.30;;;;;;;17.25;100.00;97910.56;5013166;28;20099;-79
2023/07/26 00:05:29;;;;;;;0.30;0.30;;;;;;;17.24;100.00;97913.59;5013455;28;20119;-79
2023/07/26 00:07:56;;;;;;;0.30;0.30;;;;;;;17.23;100.00;97912.00;5013349;28;20586;-78
2023/07/26 00:10:23;;;;;;;0.30;0.30;;;;;;;17.22;100.00;97919.38;5044670;28;20073;-80
2023/07/26 00:12:50;;;;;;;0.30;0.30;;;;;;;17.27;100.00;97919.25;5027626;28;20054;-80
2023/07/26 00:15:17;;;;;;;0.30;0.30;;;;;;;17.27;100.00;97908.34;5012945;28;20046;-79
2023/07/26 00:17:45;;;;;;;0.30;0.30;;;;;;;17.23;100.00;97898.38;5012587;28;20096;-79
2023/07/26 00:20:11;;;;;;;0.30;0.30;;;;;;;17.24;100.00;97906.25;5012280;28;20053;-78
2023/07/26 00:22:39;;;;;;;0.30;0.30;;;;;;;17.22;100.00;97897.56;5011107;28;20491;-79
2023/07/26 00:25:06;;;;;;;0.20;0.20;;;;;;;17.20;100.00;97899.00;5012930;28;20045;-79
2023/07/26 00:27:36;;;;;;;0.30;0.30;;;;;;;17.14;100.00;97895.59;5012675;28;20046;-78
2023/07/26 00:30:05;;;;;;;0.30;0.30;;;;;;;17.12;100.00;97895.13;5012567;28;20494;-78
2023/07/26 00:32:33;;;;;;;0.30;0.30;;;;;;;17.07;100.00;97892.53;5013243;28;20049;-78
2023/07/26 00:35:02;;;;;;;0.30;0.30;;;;;;;17.04;100.00;97893.97;4978148;28;20169;-78
2023/07/26 00:37:29;;;;;;;0.30;0.30;;;;;;;17.02;100.00;97889.94;5012692;28;20058;-78
2023/07/26 00:39:57;;;;;;;0.30;0.30;;;;;;;16.99;100.00;97888.66;5012241;28;20084;-78
2023/07/26 00:42:24;;;;;;;0.30;0.30;;;;;;;16.94;100.00;97888.78;5012351;28;20072;-79
2023/07/26 00:44:51;;;;;;;0.30;0.30;;;;;;;16.89;100.00;97886.22;5012499;28;20073;-79
2023/07/26 00:47:19;;;;;;;0.30;0.30;;;;;;;16.84;100.00;97876.25;5012122;28;20595;-79
2023/07/26 00:49:46;;;;;;;0.30;0.30;;;;;;;16.85;100.00;97877.84;4978726;28;20096;-77
2023/07/26 00:52:14;;;;;;;0.30;0.30;;;;;;;16.85;100.00;97880.56;5011253;28;20057;-78
2023/07/26 00:54:41;;;;;;;0.30;0.30;;;;;;;16.83;100.00;97879.25;4994420;28;20080;-79
2023/07/26 00:57:08;;;;;;;0.30;0.30;;;;;;;16.82;100.00;97883.91;5010428;28;20054;-79
2023/07/26 00:59:36;;;;;;;0.30;0.30;;;;;;;16.78;100.00;97888.38;5011874;28;20128;-78
2023/07/26 01:02:04;;;;;;;0.30;0.30;;;;;;;16.76;100.00;97884.31;4993945;28;20599;-78
2023/07/26 01:04:31;;;;;;;0.30;0.30;;;;;;;16.72;100.00;97877.91;5027135;28;20050;-77
2023/07/26 01:07:32;;;;;;;0.30;0.30;;;;;;;16.66;100.00;97869.03;5011506;28;20103;-78
2023/07/26 01:10:02;;;;;;;0.30;0.30;;;;;;;16.61;100.00;97867.28;4994053;28;20053;-78
2023/07/26 01:12:35;;;;;;;0.30;0.30;;;;;;;16.61;100.00;97861.00;5011827;28;20054;-79
2023/07/26 01:15:07;;;;;;;0.30;0.30;;;;;;;16.59;100.00;97863.25;4994397;28;20432;-79
2023/07/26 01:17:35;;;;;;;0.30;0.30;;;;;;;16.57;100.00;97857.31;5010790;28;20507;-78
2023/07/26 01:20:02;;;;;;;0.30;0.30;;;;;;;16.56;100.00;97855.69;5009979;28;20088;-78
2023/07/26 01:22:30;;;;;;;0.30;0.30;;;;;;;16.57;100.00;97852.66;5011787;28;20401;-78
2023/07/26 01:24:57;;;;;;;0.30;0.30;;;;;;;16.54;100.00;97856.00;5010974;28;20476;-78
2023/07/26 01:27:25;;;;;;;0.30;0.30;;;;;;;16.54;100.00;97855.22;5009784;28;20062;-78
2023/07/26 01:29:55;;;;;;;0.30;0.30;;;;;;;16.55;100.00;97859.53;5010857;28;20080;-77
2023/07/26 01:32:24;;;;;;;0.30;0.30;;;;;;;16.56;100.00;97853.78;5011025;28;20045;-78
2023/07/26 01:34:51;;;;;;;0.30;0.30;;;;;;;16.57;100.00;97846.41;5024448;28;20046;-78
2023/07/26 01:37:19;;;;;;;0.30;0.30;;;;;;;16.58;100.00;97861.63;5043208;28;20132;-78
2023/07/26 01:39:48;;;;;;;0.30;0.30;;;;;;;16.56;100.00;97856.50;5011318;28;20050;-78
2023/07/26 01:42:15;;;;;;;0.30;0.30;;;;;;;16.54;100.00;97868.81;5026182;28;20052;-78
2023/07/26 01:44:42;;;;;;;0.30;0.30;;;;;;;16.52;100.00;97868.34;5026434;28;20133;-78
2023/07/26 01:47:09;;;;;;;0.30;0.30;;;;;;;16.50;100.00;97865.91;5011116;28;20053;-78
2023/07/26 01:49:36;;;;;;;0.30;0.30;;;;;;;16.50;100.00;97848.78;5011968;28;20061;-78
2023/07/26 01:52:05;;;;;;;0.30;0.30;;;;;;;16.52;100.00;97857.44;5011151;28;20508;-78
2023/07/26 01:54:32;;;;;;;0.30;0.30;;;;;;;16.54;100.00;97844.31;5010276;28;20100;-78
2023/07/26 01:56:59;;;;;;;0.30;0.30;;;;;;;16.57;100.00;97851.84;5010848;28;20512;-78
2023/07/26 01:59:26;;;;;;;0.30;0.30;;;;;;;16.58;100.00;97846.09;5026491;28;20095;-79
2023/07/26 02:01:53;;;;;;;0.30;0.30;;;;;;;16.63;100.00;97839.72;5025573;28;20056;-79
2023/07/26 02:04:20;;;;;;;0.30;0.30;;;;;;;16.65;100.00;97846.44;5026016;28;20119;-78
2023/07/26 02:06:47;;;;;;;0.30;0.30;;;;;;;16.67;100.00;97846.16;5010159;28;20112;-79
2023/07/26 02:09:14;;;;;;;0.30;0.30;;;;;;;16.70;100.00;97840.06;5026103;28;20050;-79
2023/07/26 02:11:41;;;;;;;0.30;0.30;;;;;;;16.69;100.00;97833.81;5026106;28;20402;-79
2023/07/26 02:14:08;;;;;;;0.30;0.30;;;;;;;16.77;100.00;97843.16;5011014;28;20489;-78
2023/07/26 02:16:54;;;;;;;0.30;0.30;;;;;;;16.80;100.00;97856.19;5010908;28;20489;-80
2023/07/26 02:19:21;;;;;;;0.30;0.30;;;;;;;16.81;100.00;97846.91;5011069;28;20062;-79
2023/07/26 02:21:49;;;;;;;0.30;0.30;;;;;;;16.83;100.00;97847.38;5011305;28;20053;-78
2023/07/26 02:24:16;;;;;;;0.30;0.30;;;;;;;16.85;100.00;97847.06;5009608;28;20390;-78
2023/07/26 02:26:43;;;;;;;0.30;0.30;;;;;;;16.87;100.00;97848.38;5025131;28;20052;-78
2023/07/26 02:29:10;;;;;;;0.30;0.30;;;;;;;16.90;100.00;97849.66;5025686;28;20050;-77
2023/07/26 02:31:37;;;;;;;0.30;0.30;;;;;;;16.93;100.00;97845.50;5009352;28;20096;-78
2023/07/26 02:34:04;;;;;;;0.30;0.30;;;;;;;16.98;100.00;97854.31;5024099;28;20046;-79
2023/07/26 02:36:31;;;;;;;0.30;0.30;;;;;;;17.01;100.00;97855.63;5010372;28;20050;-79
2023/07/26 02:38:58;;;;;;;0.30;0.30;;;;;;;17.04;100.00;97855.81;5010150;28;20452;-78
2023/07/26 02:41:25;;;;;;;0.30;0.30;;;;;;;17.06;100.00;97855.47;5009777;28;20049;-78
2023/07/26 02:43:52;;;;;;;0.30;0.30;;;;;;;17.11;100.00;97858.06;5026392;28;20104;-78
2023/07/26 02:46:19;;;;;;;0.30;0.30;;;;;;;17.15;100.00;97858.25;5008770;28;20096;-79
2023/07/26 02:48:48;;;;;;;0.30;0.30;;;;;;;17.17;100.00;97856.03;5025517;28;20046;-79
2023/07/26 02:51:18;;;;;;;0.30;0.30;;;;;;;17.24;100.00;97851.72;5007782;28;20103;-77
2023/07/26 02:53:46;;;;;;;0.30;0.30;;;;;;;17.29;100.00;97850.75;4991181;28;20394;-78
2023/07/26 02:56:13;;;;;;;0.30;0.30;;;;;;;17.33;100.00;97849.81;5007278;28;20053;-78
2023/07/26 02:58:40;;;;;;;0.30;0.30;;;;;;;17.37;100.00;97852.72;5007216;28;20507;-78
2023/07/26 03:01:07;;;;;;;0.30;0.30;;;;;;;17.40;100.00;97848.56;5007394;28;20120;-78
2023/07/26 03:03:34;;;;;;;0.30;0.30;;;;;;;17.44;100.00;97850.31;5007541;28;20472;-77
2023/07/26 03:06:01;;;;;;;0.30;0.30;;;;;;;17.49;100.00;97855.59;4990639;28;20049;-77
2023/07/26 03:08:28;;;;;;;0.30;0.30;;;;;;;17.51;100.00;97852.56;4991145;28;20520;-80
2023/07/26 03:10:55;;;;;;;0.30;0.30;;;;;;;17.53;100.00;97848.41;4990473;28;20054;-77
2023/07/26 03:13:22;;;;;;;0.30;0.30;;;;;;;17.59;100.00;97850.97;4992168;28;20605;-79
2023/07/26 03:15:49;;;;;;;0.30;0.30;;;;;;;17.62;100.00;97848.41;5012664;28;20053;-78
2023/07/26 03:18:16;;;;;;;0.30;0.30;;;;;;;17.66;100.00;97852.13;4634771;28;9999918;-79
2023/07/26 03:20:48;;;;;;;0.30;0.30;;;;;;;17.73;100.00;97857.13;5007597;28;20137;-79
2023/07/26 03:23:17;;;;;;;0.30;0.30;;;;;;;17.76;100.00;97862.72;4989945;28;20144;-79
2023/07/26 03:25:44;;;;;;;0.30;0.30;;;;;;;17.79;100.00;97860.47;5002512;28;20046;-79
2023/07/26 03:28:11;;;;;;;0.30;0.30;;;;;;;17.83;100.00;97854.09;5006438;28;20053;-80
2023/07/26 03:30:39;;;;;;;0.30;0.30;;;;;;;17.90;100.00;97850.88;5025774;28;20849;-80
2023/07/26 03:33:08;;;;;;;0.30;0.30;;;;;;;17.94;100.00;97846.41;5009535;28;20046;-78
2023/07/26 03:35:35;;;;;;;0.30;0.30;;;;;;;18.02;100.00;97847.53;5011115;28;20052;-79
2023/07/26 03:38:02;;;;;;;0.30;0.30;;;;;;;18.07;100.00;97845.41;5011213;28;20058;-78
2023/07/26 03:40:30;;;;;;;0.30;0.30;;;;;;;18.11;100.00;97849.13;5010817;28;20145;-78
2023/07/26 03:42:57;;;;;;;0.30;0.30;;;;;;;18.16;100.00;97840.78;5025939;28;20432;-78
2023/07/26 03:45:26;;;;;;;0.30;0.30;;;;;;;18.19;100.00;97848.31;5010178;28;20050;-79
2023/07/26 03:47:54;;;;;;;0.30;0.30;;;;;;;18.24;100.00;97847.34;5010396;28;20052;-78
2023/07/26 03:50:21;;;;;;;0.30;0.30;;;;;;;18.28;100.00;97842.84;5011352;28;20053;-78
2023/07/26 03:52:48;;;;;;;0.30;0.30;;;;;;;18.36;100.00;97836.56;5024958;28;20072;-79
2023/07/26 03:55:15;;;;;;;0.30;0.30;;;;;;;18.44;100.00;97829.50;5009618;28;20567;-79
2023/07/26 03:57:43;;;;;;;0.30;0.30;;;;;;;18.52;99.98;97823.19;5008964;28;20049;-80
2023/07/26 04:00:12;;;;;;;0.30;0.30;;;;;;;18.60;99.38;97808.69;5023618;28;20049;-79
2023/07/26 04:02:40;;;;;;;0.30;0.30;;;;;;;18.69;98.95;97816.09;5005064;28;20054;-79
2023/07/26 04:05:08;;;;;;;0.30;0.30;;;;;;;18.74;97.82;97810.44;5030054;28;20046;-78
2023/07/26 04:07:39;;;;;;;0.30;0.30;;;;;;;18.80;96.53;97798.22;4998173;28;20558;-79
2023/07/26 04:10:10;;;;;;;0.30;0.30;;;;;;;18.88;95.70;97808.31;4992928;28;20047;-80
2023/07/26 04:12:37;;;;;;;0.30;0.30;;;;;;;18.90;95.68;97789.66;4998769;28;20199;-79
2023/07/26 04:15:04;;;;;;;0.30;0.30;;;;;;;19.02;95.40;97795.25;4999495;28;20521;-79
2023/07/26 04:17:32;;;;;;;0.30;0.30;;;;;;;19.14;94.36;97791.81;5007781;28;20078;-78
2023/07/26 04:19:59;;;;;;;0.30;0.30;;;;;;;19.22;93.45;97790.94;5008120;28;20105;-79
2023/07/26 04:22:26;;;;;;;0.30;0.30;;;;;;;19.31;92.56;97798.28;4993102;28;20046;-77
2023/07/26 04:24:53;;;;;;;0.30;0.30;;;;;;;19.47;91.91;97794.66;4992350;28;20046;-79
2023/07/26 04:27:20;;;;;;;0.30;0.30;;;;;;;19.55;90.66;97798.47;4992902;28;20406;-79
2023/07/26 04:29:47;;;;;;;0.30;0.30;;;;;;;19.66;89.97;97790.66;4992906;28;20494;-77
2023/07/26 04:32:14;;;;;;;0.30;0.30;;;;;;;19.81;89.27;97801.03;4992520;28;20097;-78
2023/07/26 04:34:41;;;;;;;0.30;0.30;;;;;;;19.90;88.64;97787.25;4992942;28;20077;-79
2023/07/26 04:37:09;;;;;;;0.30;0.30;;;;;;;19.99;87.88;97784.47;5007762;28;20529;-79
2023/07/26 04:39:36;;;;;;;0.30;0.30;;;;;;;20.06;87.04;97795.69;4992529;28;20500;-79
2023/07/26 04:42:03;;;;;;;0.30;0.30;;;;;;;20.01;86.33;97793.94;4993117;28;20551;-80
2023/07/26 04:44:30;;;;;;;0.30;0.30;;;;;;;19.90;86.14;97793.56;4993056;28;20139;-80
2023/07/26 04:46:57;;;;;;;0.30;0.30;;;;;;;19.90;86.36;97790.00;4994246;28;20465;-79
2023/07/26 04:49:25;;;;;;;0.30;0.30;;;;;;;20.07;86.39;97797.25;4994671;28;20054;-79
2023/07/26 04:51:52;;;;;;;0.30;0.30;;;;;;;20.22;85.87;97793.09;4992479;28;20537;-79
2023/07/26 04:54:19;;;;;;;0.30;0.30;;;;;;;20.29;85.00;97785.94;4995930;28;20173;-79
2023/07/26 04:56:45;;;;;;;0.30;0.30;;;;;;;20.45;84.42;97774.31;5003431;28;20057;-79
2023/07/26 04:59:13;;;;;;;0.30;0.30;;;;;;;20.62;83.15;97774.16;5001698;28;20504;-79
2023/07/26 05:01:40;;;;;;;0.30;0.30;;;;;;;20.70;82.70;97770.50;4997562;28;20064;-79
2023/07/26 05:04:08;;;;;;;0.30;0.30;;;;;;;20.85;82.23;97768.25;5003853;28;20080;-80
2023/07/26 05:06:36;;;;;;;0.30;0.30;;;;;;;21.07;81.04;97767.00;5015996;28;20046;-77
2023/07/26 05:09:05;;;;;;;0.30;0.30;;;;;;;21.31;80.26;97760.69;4994447;28;20045;-79
2023/07/26 05:11:32;;;;;;;0.30;0.30;;;;;;;21.55;79.12;97757.13;4999593;28;20093;-79
2023/07/26 05:14:00;;;;;;;0.30;0.30;;;;;;;21.63;78.37;97740.50;5011757;28;20058;-79
2023/07/26 05:16:27;;;;;;;0.30;0.30;;;;;;;21.62;77.90;97747.16;5002740;28;20058;-79
2023/07/26 05:18:57;;;;;;;0.30;0.30;;;;;;;21.47;78.40;97752.56;4981699;28;20054;-79
2023/07/26 05:21:25;;;;;;;0.20;0.20;;;;;;;21.42;78.65;97742.59;4991895;28;20046;-81
2023/07/26 05:23:53;;;;;;;0.25;0.25;;;;;;;21.31;78.39;97745.00;5001141;28;20074;-79
2023/07/26 05:26:25;;;;;;;0.25;0.25;;;;;;;21.35;78.84;97739.66;4813445;28;10000500;-78
2023/07/26 05:28:53;;;;;;;0.25;0.25;;;;;;;21.52;78.83;97735.84;5001388;28;20363;-78
2023/07/26 05:31:22;;;;;;;0.20;0.20;;;;;;;21.56;77.53;97745.00;4997378;28;20252;-78
2023/07/26 05:33:49;;;;;;;0.30;0.30;;;;;;;21.55;77.32;97738.72;4986730;28;20050;-79
2023/07/26 05:36:16;;;;;;;0.20;0.20;;;;;;;21.61;77.63;97729.06;4987509;28;20058;-78
2023/07/26 05:38:43;;;;;;;0.20;0.20;;;;;;;21.73;77.42;97738.44;4994097;28;20062;-79
2023/07/26 05:41:10;;;;;;;0.20;0.20;;;;;;;21.74;77.08;97740.00;5010631;28;20129;-79
2023/07/26 05:43:37;;;;;;;0.20;0.20;;;;;;;21.68;76.78;97731.22;5002047;28;20767;-79
2023/07/26 05:46:06;;;;;;;0.30;0.30;;;;;;;21.60;76.16;97734.94;4986171;28;20132;-80
2023/07/26 05:48:33;;;;;;;0.20;0.20;;;;;;;21.57;77.23;97727.38;4994897;28;20053;-78
2023/07/26 05:51:00;;;;;;;0.30;0.30;;;;;;;21.72;76.81;97736.81;5001694;28;20052;-79
2023/07/26 05:53:28;;;;;;;0.25;0.25;;;;;;;21.80;76.17;97733.13;5020635;28;20424;-79
2023/07/26 05:55:57;;;;;;;0.30;0.30;;;;;;;21.84;75.59;97732.06;5037108;28;20541;-79
2023/07/26 05:58:25;;;;;;;0.30;0.30;;;;;;;21.81;75.45;97737.47;5011150;28;20136;-79
2023/07/26 06:00:56;;;;;;;0.20;0.20;;;;;;;21.92;75.48;97735.81;5017655;28;20628;-81
2023/07/26 06:03:24;;;;;;;0.22;0.22;;;;;;;22.07;74.68;97734.25;5004903;28;20049;-81
2023/07/26 06:05:51;;;;;;;0.30;0.30;;;;;;;22.04;74.61;97749.50;5004964;28;20459;-80
2023/07/26 06:08:19;;;;;;;0.30;0.30;;;;;;;22.10;74.82;97741.00;5007481;28;20049;-79
2023/07/26 06:10:46;;;;;;;0.30;0.30;;;;;;;22.20;74.38;97749.56;4995660;28;20394;-81
2023/07/26 06:13:14;;;;;;;0.22;0.22;;;;;;;22.13;73.75;97735.63;4973163;28;20569;-78
2023/07/26 06:15:41;;;;;;;0.20;0.20;;;;;;;22.14;74.28;97739.16;4928725;28;20122;-81
2023/07/26 06:18:08;;;;;;;0.30;0.30;;;;;;;22.20;74.49;97730.31;4970490;28;20057;-79
2023/07/26 06:20:35;;;;;;;0.30;0.30;;;;;;;22.39;73.74;97742.59;4972560;28;20057;-80
2023/07/26 06:23:03;;;;;;;0.30;0.30;;;;;;;22.42;72.57;97731.69;4972944;28;20062;-80
2023/07/26 06:25:30;;;;;;;0.30;0.30;;;;;;;22.40;72.90;97717.50;4965780;28;20079;-81
2023/07/26 06:27:57;;;;;;;0.30;0.30;;;;;;;22.56;72.73;97705.69;4981501;28;20058;-79
2023/07/26 06:30:25;;;;;;;0.30;0.30;;;;;;;22.80;71.78;97707.47;4954899;28;20058;-80
2023/07/26 06:32:53;;;;;;;0.30;0.30;;;;;;;23.13;71.42;97696.88;4966333;28;20474;-80
2023/07/26 06:35:20;;;;;;;0.20;0.20;;;;;;;23.50;69.26;97702.00;4974773;28;20069;-79
2023/07/26 06:37:47;;;;;;;0.30;0.30;;;;;;;23.66;68.02;97703.88;4972280;28;20109;-79
2023/07/26 06:40:14;;;;;;;0.30;0.30;;;;;;;23.72;67.44;97691.41;4978551;28;20055;-82
2023/07/26 06:42:44;;;;;;;0.30;0.30;;;;;;;23.78;67.49;97693.53;4965696;28;20047;-81
2023/07/26 06:45:13;;;;;;;0.20;0.20;;;;;;;23.88;67.11;97688.63;5001841;28;20046;-79
2023/07/26 06:47:40;;;;;;;0.30;0.30;;;;;;;24.15;66.42;97675.72;5001158;28;20741;-80
2023/07/26 06:50:07;;;;;;;0.30;0.30;;;;;;;24.42;65.77;97677.38;5007642;28;20049;-79
2023/07/26 06:52:35;;;;;;;0.20;0.20;;;;;;;24.42;64.89;97682.88;5007267;28;20109;-79
2023/07/26 06:55:03;;;;;;;0.30;0.30;;;;;;;24.26;64.68;97686.91;5004724;28;20049;-80
2023/07/26 06:57:31;;;;;;;0.30;0.30;;;;;;;24.14;66.44;97674.94;5009676;28;20133;-79
2023/07/26 06:59:58;;;;;;;0.22;0.22;;;;;;;24.27;65.69;97680.25;5025975;28;20057;-79
2023/07/26 07:02:26;;;;;;;0.20;0.20;;;;;;;24.19;65.78;97668.31;5008043;28;20049;-79
2023/07/26 07:04:54;;;;;;;0.30;0.30;;;;;;;24.14;65.68;97674.13;5004372;28;20049;-80
2023/07/26 07:07:22;;;;;;;0.30;0.30;;;;;;;24.34;65.31;97669.38;5006719;28;20054;-78
2023/07/26 07:09:49;;;;;;;0.20;0.20;;;;;;;24.44;64.38;97657.72;5001650;28;20520;-80
2023/07/26 07:12:16;;;;;;;0.30;0.30;;;;;;;24.51;63.58;97655.13;5015850;28;20053;-80
2023/07/26 07:14:44;;;;;;;0.30;0.30;;;;;;;24.67;63.89;97648.66;5025573;28;20464;-81
2023/07/26 07:17:11;;;;;;;0.30;0.30;;;;;;;24.87;63.19;97655.66;5018877;28;20057;-79
2023/07/26 07:19:38;;;;;;;0.30;0.30;;;;;;;24.87;62.72;97650.13;4999193;28;20050;-80
2023/07/26 07:22:06;;;;;;;0.30;0.30;;;;;;;25.21;62.96;97644.72;4999503;28;20052;-81
2023/07/26 07:24:34;;;;;;;0.20;0.20;;;;;;;25.63;61.86;97640.91;4979974;28;20050;-81
2023/07/26 07:27:01;;;;;;;0.20;0.20;;;;;;;25.82;59.66;97642.66;5010470;28;20077;-80
2023/07/26 07:29:28;;;;;;;0.20;0.20;;;;;;;25.58;59.41;97632.94;5009661;28;20614;-79
2023/07/26 07:31:55;;;;;;;0.20;0.20;;;;;;;25.58;60.19;97635.72;5010254;28;20038;-81
2023/07/26 07:34:42;;;;;;;0.20;0.20;;;;;;;25.73;59.44;97634.69;5002670;28;20076;-78
2023/07/26 07:37:09;;;;;;;0.20;0.20;;;;;;;25.70;60.12;97629.91;4997943;28;20050;-79
2023/07/26 07:39:36;;;;;;;0.20;0.20;;;;;;;25.67;60.08;97631.44;5009915;28;20053;-79
2023/07/26 07:42:05;;;;;;;0.20;0.20;;;;;;;25.46;60.28;97629.25;5008591;28;20539;-81
2023/07/26 07:44:34;;;;;;;0.20;0.20;;;;;;;25.30;60.60;97625.91;5004020;28;20505;-79
2023/07/26 07:47:02;;;;;;;0.20;0.20;;;;;;;25.23;60.74;97614.78;5008345;28;20057;-80
2023/07/26 07:49:33;;;;;;;0.20;0.20;;;;;;;25.14;60.75;97630.78;4988736;28;20087;-79
2023/07/26 07:52:00;;;;;;;0.20;0.20;;;;;;;24.97;61.98;97632.16;5001122;28;20058;-81
2023/07/26 07:54:27;;;;;;;0.20;0.20;;;;;;;25.01;62.72;97622.72;5008646;28;20141;-81
2023/07/26 07:56:54;;;;;;;0.20;0.20;;;;;;;25.25;62.07;97624.28;5009559;28;20521;-81
2023/07/26 07:59:21;;;;;;;0.20;0.20;;;;;;;25.33;61.47;97616.88;5000155;28;20046;-81
2023/07/26 08:01:48;;;;;;;0.20;0.20;;;;;;;25.22;61.61;97629.72;5009157;28;20050;-79
2023/07/26 08:04:15;;;;;;;0.20;0.20;;;;;;;25.33;61.94;97625.16;5007901;28;20057;-80
2023/07/26 08:06:42;;;;;;;0.20;0.20;;;;;;;25.33;62.00;97627.13;5001301;28;20045;-82
2023/07/26 08:09:10;;;;;;;0.20;0.20;;;;;;;25.10;62.77;97639.03;4993479;28;20508;-82
2023/07/26 08:11:37;;;;;;;0.20;0.20;;;;;;;25.22;62.48;97632.47;4994190;28;20052;-81
2023/07/26 08:14:04;;;;;;;0.20;0.20;;;;;;;25.25;62.80;97637.28;5003311;28;20100;-81
2023/07/26 08:16:31;;;;;;;0.20;0.20;;;;;;;25.23;63.28;97640.41;5002510;28;20171;-82
2023/07/26 08:19:01;;;;;;;0.20;0.20;;;;;;;25.21;64.22;97628.16;5005904;28;20143;-82
2023/07/26 08:21:28;;;;;;;0.20;0.20;;;;;;;25.39;63.82;97625.59;5004243;28;20061;-83
2023/07/26 08:23:56;;;;;;;0.20;0.20;;;;;;;25.43;62.69;97635.53;5002241;28;20393;-81
2023/07/26 08:26:24;;;;;;;0.20;0.20;;;;;;;25.48;63.28;97629.66;5011675;28;20046;-82
2023/07/26 08:28:52;;;;;;;0.20;0.20;;;;;;;25.46;62.90;97632.00;5013879;28;20862;-80
2023/07/26 08:31:19;;;;;;;0.20;0.20;;;;;;;25.21;63.48;97644.72;4990230;28;20050;-82
2023/07/26 08:33:46;;;;;;;0.20;0.20;;;;;;;24.98;64.66;97637.28;4986208;28;20051;-81
2023/07/26 08:36:13;;;;;;;0.20;0.20;;;;;;;24.82;65.80;97639.41;4986519;28;20461;-81
2023/07/26 08:38:40;;;;;;;0.20;0.20;;;;;;;24.60;66.07;97635.53;4998786;28;20054;-81
2023/07/26 08:41:07;;;;;;;0.20;0.20;;;;;;;24.49;67.42;97629.06;4982333;28;20052;-81
2023/07/26 08:43:37;;;;;;;0.20;0.20;;;;;;;24.58;67.37;97624.88;4979265;28;20042;-81
2023/07/26 08:46:06;;;;;;;0.20;0.20;;;;;;;24.54;68.23;97610.25;4971977;28;20631;-82
2023/07/26 08:48:33;;;;;;;0.20;0.20;;;;;;;24.49;67.49;97599.53;4981048;28;20116;-82
2023/07/26 08:51:00;;;;;;;0.20;0.20;;;;;;;24.33;67.83;97585.88;4985286;28;20046;-83
2023/07/26 08:53:28;;;;;;;0.20;0.20;;;;;;;24.31;67.73;97570.88;4979452;28;20493;-82
2023/07/26 08:55:55;;;;;;;0.20;0.20;;;;;;;24.14;67.89;97563.91;4973212;28;20055;-82
2023/07/26 08:58:22;;;;;;;0.20;0.20;;;;;;;23.90;68.44;97549.34;4962864;28;20141;-82
2023/07/26 09:00:49;;;;;;;0.20;0.20;;;;;;;23.72;68.68;97557.28;4989506;28;20053;-83
2023/07/26 09:03:17;;;;;;;0.20;0.20;;;;;;;23.60;69.82;97551.94;4992240;28;20046;-82
2023/07/26 09:05:45;;;;;;;0.20;0.20;;;;;;;23.49;69.91;97535.19;4992401;28;20145;-82
2023/07/26 09:08:12;;;;;;;0.20;0.20;;;;;;;23.34;71.08;97553.41;5002963;28;20053;-80
2023/07/26 09:10:40;;;;;;;0.20;0.20;;;;;;;23.23;72.02;97543.38;5007839;28;20041;-81
2023/07/26 09:13:12;;;;;;;0.20;0.20;;;;;;;23.17;72.35;97531.88;5010816;28;20054;-83
2023/07/26 09:15:41;;;;;;;0.20;0.20;;;;;;;23.11;72.76;97533.31;5043299;28;20097;-81
2023/07/26 09:18:08;;;;;;;0.20;0.20;;;;;;;23.08;72.86;97543.06;5011363;28;20045;-83
2023/07/26 09:20:36;;;;;;;0.20;0.20;;;;;;;23.03;73.13;97548.09;5011905;28;20050;-82
2023/07/26 09:23:08;;;;;;;0.20;0.20;;;;;;;23.06;73.14;97539.09;5016299;28;20779;-82
2023/07/26 09:25:40;;;;;;;0.20;0.20;;;;;;;23.04;73.84;97546.91;5013104;28;20050;-82
2023/07/26 09:28:08;;;;;;;0.20;0.20;;;;;;;23.00;75.02;97554.31;5010335;28;20460;-82
2023/07/26 09:30:36;;;;;;;0.20;0.20;;;;;;;22.93;74.73;97552.16;5011573;28;20092;-81
2023/07/26 09:33:06;;;;;;;0.20;0.20;;;;;;;22.92;75.16;97548.63;5024991;28;20050;-80
2023/07/26 09:35:47;;;;;;;0.20;0.20;;;;;;;22.99;74.77;97545.28;5008878;28;20464;-81
2023/07/26 09:38:21;;;;;;;0.20;0.20;;;;;;;23.08;75.01;97553.28;5008397;28;20105;-82
2023/07/26 09:40:48;;;;;;;0.20;0.20;;;;;;;23.19;75.21;97543.28;5010449;28;20052;-82
2023/07/26 09:43:31;;;;;;;0.20;0.20;;;;;;;23.38;74.51;97544.44;5018134;28;20049;-82
2023/07/26 09:46:07;;;;;;;0.30;0.30;;;;;;;23.57;73.40;97544.38;5019445;28;20042;-82
2023/07/26 09:48:57;;;;;;;0.20;0.20;;;;;;;23.59;73.43;97544.81;5021101;28;20082;-81
2023/07/26 09:51:30;;;;;;;0.20;0.20;;;;;;;23.57;74.24;97533.38;5006714;28;20058;-82
2023/07/26 09:53:59;;;;;;;0.20;0.20;;;;;;;23.46;74.85;97540.66;5007729;28;20056;-82
2023/07/26 09:56:31;;;;;;;0.20;0.20;;;;;;;23.43;76.07;97533.91;5000875;28;20058;-81
2023/07/26 09:58:59;;;;;;;0.20;0.20;;;;;;;23.35;76.37;97533.00;4988105;28;20050;-82
2023/07/26 10:01:27;;;;;;;0.20;0.20;;;;;;;23.33;76.85;97548.28;4987146;28;20050;-82
2023/07/26 10:03:55;;;;;;;0.20;0.20;;;;;;;23.17;77.34;97522.78;5014800;28;20101;-82
2023/07/26 10:06:23;;;;;;;0.20;0.20;;;;;;;23.14;78.21;97532.56;5005734;28;20571;-82
2023/07/26 10:08:51;;;;;;;0.20;0.20;;;;;;;23.09;78.71;97541.94;5003523;28;20391;-82
2023/07/26 10:11:18;;;;;;;0.20;0.20;;;;;;;22.99;79.25;97528.75;5006353;28;20099;-83
2023/07/26 10:13:46;;;;;;;0.20;0.20;;;;;;;22.95;80.21;97533.34;5023049;28;20046;-82
2023/07/26 10:16:13;;;;;;;0.20;0.20;;;;;;;22.89;81.97;97543.84;4998966;28;20042;-82
2023/07/26 10:18:42;;;;;;;0.20;0.20;;;;;;;22.82;82.41;97535.44;5018701;28;20050;-81
2023/07/26 10:21:12;;;;;;;0.20;0.20;;;;;;;22.82;82.49;97543.69;5012006;28;20431;-81
2023/07/26 10:23:40;;;;;;;0.20;0.20;;;;;;;22.80;82.26;97547.97;5010911;28;20120;-82
2023/07/26 10:26:09;;;;;;;0.20;0.20;;;;;;;22.82;82.65;97551.16;5018701;28;20080;-82
2023/07/26 10:28:38;;;;;;;0.20;0.20;;;;;;;22.83;82.64;97548.03;5016394;28;20105;-82
2023/07/26 10:31:05;;;;;;;0.20;0.20;;;;;;;22.86;82.46;97539.06;5010797;28;20046;-82
2023/07/26 10:33:33;;;;;;;0.20;0.20;;;;;;;22.84;82.41;97537.81;5008803;28;20042;-82
2023/07/26 10:36:04;;;;;;;0.20;0.20;;;;;;;22.82;83.04;97523.66;5024650;28;20047;-83
2023/07/26 10:38:37;;;;;;;0.20;0.20;;;;;;;22.75;84.51;97502.28;5009731;28;20045;-81
2023/07/26 10:41:20;;;;;;;0.20;0.20;;;;;;;22.66;86.32;97498.94;5008617;28;20057;-82
2023/07/26 10:43:49;;;;;;;0.20;0.20;;;;;;;22.54;87.94;97497.16;4662778;28;9999826;-82
2023/07/26 10:46:18;;;;;;;0.20;0.20;;;;;;;22.47;89.07;97478.53;5011274;28;20053;-82
2023/07/26 10:48:45;;;;;;;0.20;0.20;;;;;;;22.35;90.71;97478.66;5014867;28;20531;-82
2023/07/26 10:51:21;;;;;;;0.20;0.20;;;;;;;22.21;92.49;97479.16;5014178;28;20531;-82
2023/07/26 10:53:49;;;;;;;0.20;0.20;;;;;;;22.16;92.33;97471.16;5012440;28;20093;-81
2023/07/26 10:56:22;;;;;;;0.20;0.20;;;;;;;22.17;91.68;97470.00;5024030;28;20524;-82
2023/07/26 10:58:54;;;;;;;0.20;0.20;;;;;;;22.05;92.42;97472.84;5012503;28;20551;-82
2023/07/26 11:01:41;;;;;;;0.20;0.20;;;;;;;22.01;93.90;97474.75;5011387;28;20562;-82
2023/07/26 11:04:11;;;;;;;0.20;0.20;;;;;;;21.92;94.12;97476.88;5012319;28;20140;-80
2023/07/26 11:06:57;;;;;;;0.20;0.20;;;;;;;21.85;95.46;97469.25;5010664;28;20107;-81
2023/07/26 11:09:24;;;;;;;0.20;0.20;;;;;;;21.79;95.44;97446.75;5001756;28;20050;-79
2023/07/26 11:11:55;;;;;;;0.20;0.20;;;;;;;21.77;95.28;97443.56;5003457;28;20057;-81
2023/07/26 11:14:24;;;;;;;0.20;0.20;;;;;;;21.69;95.24;97435.53;4996336;28;20080;-80
2023/07/26 11:16:53;;;;;;;0.20;0.20;;;;;;;21.71;94.53;97433.22;5001531;28;20054;-82
2023/07/26 11:19:24;;;;;;;0.20;0.20;;;;;;;21.72;93.86;97438.34;5005501;28;20678;-81
2023/07/26 11:21:51;;;;;;;0.20;0.20;;;;;;;21.73;93.28;97422.69;5027096;28;20495;-82
2023/07/26 11:24:26;;;;;;;0.20;0.20;;;;;;;21.74;92.72;97424.28;5028743;28;20571;-82
2023/07/26 11:26:53;;;;;;;0.20;0.20;;;;;;;21.70;92.64;97435.19;5015587;28;20161;-82
2023/07/26 11:29:21;;;;;;;0.20;0.20;;;;;;;21.68;92.68;97439.44;5013433;28;20060;-81
2023/07/26 11:31:48;;;;;;;0.20;0.20;;;;;;;21.61;91.40;97453.78;5012609;28;20049;-82
2023/07/26 11:34:17;;;;;;;0.20;0.20;;;;;;;21.45;93.09;97480.44;5010249;28;20104;-82